createdAt,value
2023-05-14T00:01:08.232Z,29.60
2023-05-14T00:04:11.171Z,38.60
2023-05-14T00:07:14.019Z,32.70
2023-05-14T00:10:19.185Z,34.80
2023-05-14T00:13:21.890Z,34.10
2023-05-14T00:16:24.629Z,52.00
2023-05-14T00:19:27.873Z,40.00
2023-05-14T00:22:30.602Z,47.20
2023-05-14T00:25:33.345Z,37.30
2023-05-14T00:28:36.212Z,24.60
2023-05-14T00:31:39.013Z,29.10
2023-05-14T00:34:42.053Z,26.70
2023-05-14T00:37:44.882Z,28.20
2023-05-14T00:40:51.464Z,28.60
2023-05-14T00:43:54.305Z,26.30
2023-05-14T00:46:57.362Z,32.60
2023-05-14T00:50:01.188Z,27.30
2023-05-14T00:53:10.058Z,29.60
2023-05-14T00:56:15.161Z,28.30
2023-05-14T00:59:17.916Z,28.30
2023-05-14T01:02:20.823Z,30.90
2023-05-14T01:05:28.643Z,23.90
2023-05-14T01:09:01.860Z,26.50
2023-05-14T01:12:27.082Z,24.80
2023-05-14T01:15:36.172Z,29.90
2023-05-14T01:18:41.549Z,42.60
2023-05-14T01:21:44.370Z,28.50
2023-05-14T01:24:47.360Z,24.40
2023-05-14T01:28:03.964Z,27.20
2023-05-14T01:31:25.193Z,22.10
2023-05-14T01:34:30.102Z,21.60
2023-05-14T01:37:33.258Z,16.90
2023-05-14T01:40:37.370Z,19.00
2023-05-14T01:43:41.161Z,20.20
2023-05-14T01:46:44.068Z,22.30
2023-05-14T01:49:46.797Z,18.50
2023-05-14T01:52:51.288Z,18.10
2023-05-14T01:55:54.124Z,21.60
2023-05-14T01:58:57.118Z,23.30
2023-05-14T02:02:00.405Z,23.50
2023-05-14T02:05:04.909Z,29.60
2023-05-14T02:08:09.656Z,30.70
2023-05-14T02:11:12.622Z,27.60
2023-05-14T02:14:15.785Z,27.50
2023-05-14T02:17:18.964Z,28.60
2023-05-14T02:20:21.817Z,31.10
2023-05-14T02:23:34.048Z,25.90
2023-05-14T02:26:41.189Z,31.90
2023-05-14T02:29:44.766Z,27.60
2023-05-14T02:32:47.528Z,45.50
2023-05-14T02:35:51.008Z,29.30
2023-05-14T02:38:53.953Z,49.60
2023-05-14T02:41:58.143Z,31.10
2023-05-14T02:45:01.063Z,25.90
2023-05-14T02:48:03.984Z,30.00
2023-05-14T02:51:07.902Z,26.30
2023-05-14T02:54:10.784Z,32.20
2023-05-14T02:57:13.714Z,24.80
2023-05-14T03:00:16.893Z,25.70
2023-05-14T03:03:20.562Z,24.00
2023-05-14T03:06:23.721Z,36.30
2023-05-14T03:09:26.570Z,51.10
2023-05-14T03:12:29.320Z,28.00
2023-05-14T03:15:32.031Z,24.60
2023-05-14T03:18:36.674Z,22.00
2023-05-14T03:21:39.806Z,20.90
2023-05-14T03:24:42.655Z,25.80
2023-05-14T03:27:46.023Z,22.30
2023-05-14T03:30:49.146Z,31.00
2023-05-14T03:33:52.262Z,20.30
2023-05-14T03:36:55.189Z,27.80
2023-05-14T03:39:57.938Z,26.60
2023-05-14T03:43:00.994Z,22.50
2023-05-14T03:46:03.848Z,27.50
2023-05-14T03:49:07.283Z,23.00
2023-05-14T03:52:10.830Z,29.00
2023-05-14T03:55:13.628Z,24.30
2023-05-14T03:58:17.453Z,25.90
2023-05-14T04:01:20.292Z,23.20
2023-05-14T04:04:23.164Z,24.40
2023-05-14T04:07:26.054Z,24.10
2023-05-14T04:10:29.892Z,16.70
2023-05-14T04:13:32.837Z,22.50
2023-05-14T04:16:35.883Z,18.30
2023-05-14T04:19:39.376Z,22.50
2023-05-14T04:22:42.218Z,27.60
2023-05-14T04:25:45.059Z,19.90
2023-05-14T04:28:47.818Z,17.20
2023-05-14T04:31:50.661Z,18.60
2023-05-14T04:34:53.403Z,25.20
2023-05-14T04:37:56.860Z,21.00
2023-05-14T04:40:59.781Z,22.00
2023-05-14T04:44:03.554Z,22.40
2023-05-14T04:47:07.113Z,30.10
2023-05-14T04:50:09.948Z,32.70
2023-05-14T04:53:12.725Z,23.80
2023-05-14T04:56:15.484Z,26.60
2023-05-14T04:59:18.262Z,37.10
2023-05-14T05:02:21.155Z,25.70
2023-05-14T05:05:24.309Z,36.50
2023-05-14T05:08:27.006Z,36.80
2023-05-14T05:11:29.930Z,33.90
2023-05-14T05:14:32.798Z,43.20
2023-05-14T05:17:35.900Z,34.40
2023-05-14T05:20:38.779Z,46.00
2023-05-14T05:23:41.529Z,69.50
2023-05-14T05:26:44.315Z,35.70
2023-05-14T05:29:47.007Z,29.70
2023-05-14T05:32:49.868Z,29.30
2023-05-14T05:35:52.827Z,28.60
2023-05-14T05:38:56.203Z,25.20
2023-05-14T05:41:58.926Z,29.30
2023-05-14T05:45:01.643Z,31.90
2023-05-14T05:48:04.989Z,34.00
2023-05-14T05:51:07.936Z,22.60
2023-05-14T05:54:10.682Z,20.60
2023-05-14T05:57:13.761Z,29.60
2023-05-14T06:00:17.123Z,22.90
2023-05-14T06:03:20.001Z,23.30
2023-05-14T06:06:22.912Z,15.00
2023-05-14T06:09:25.685Z,8.90
2023-05-14T06:12:28.450Z,12.00
2023-05-14T06:15:31.394Z,9.70
2023-05-14T06:18:34.157Z,18.10
2023-05-14T06:21:37.041Z,18.40
2023-05-14T06:24:39.798Z,10.40
2023-05-14T06:27:42.802Z,9.00
2023-05-14T06:30:45.687Z,18.90
2023-05-14T06:33:48.408Z,14.60
2023-05-14T06:36:51.206Z,10.40
2023-05-14T06:39:54.737Z,10.30
2023-05-14T06:42:59.251Z,15.60
2023-05-14T06:46:02.106Z,12.80
2023-05-14T06:49:05.438Z,9.10
2023-05-14T06:52:08.298Z,9.20
2023-05-14T06:55:11.103Z,8.70
2023-05-14T06:58:14.231Z,12.70
2023-05-14T07:01:17.616Z,8.00
2023-05-14T07:04:20.842Z,10.30
2023-05-14T07:07:23.662Z,7.60
2023-05-14T07:10:26.567Z,10.30
2023-05-14T07:13:29.927Z,9.20
2023-05-14T07:16:32.741Z,12.00
2023-05-14T07:19:35.593Z,9.30
2023-05-14T07:22:38.407Z,13.10
2023-05-14T07:25:41.116Z,7.60
2023-05-14T07:28:44.148Z,9.20
2023-05-14T07:31:47.218Z,23.10
2023-05-14T07:34:49.988Z,13.00
2023-05-14T07:37:52.948Z,7.40
2023-05-14T07:40:56.221Z,11.50
2023-05-14T07:43:58.932Z,14.80
2023-05-14T07:47:01.646Z,12.40
2023-05-14T07:50:04.804Z,11.90
2023-05-14T07:53:08.069Z,10.30
2023-05-14T07:56:10.812Z,8.10
2023-05-14T07:59:13.570Z,11.90
2023-05-14T08:02:17.097Z,16.80
2023-05-14T08:05:20.638Z,7.10
2023-05-14T08:08:23.413Z,8.40
2023-05-14T08:11:26.224Z,7.50
2023-05-14T08:14:29.115Z,6.60
2023-05-14T08:17:31.907Z,22.90
2023-05-14T08:20:34.731Z,19.40
2023-05-14T08:23:37.506Z,12.70
2023-05-14T08:26:40.237Z,6.90
2023-05-14T08:29:43.144Z,8.70
2023-05-14T08:32:46.030Z,14.20
2023-05-14T08:35:52.868Z,17.50
2023-05-14T08:38:55.814Z,16.40
2023-05-14T08:42:00.881Z,11.50
2023-05-14T08:45:06.215Z,6.70
2023-05-14T08:48:15.661Z,9.60
2023-05-14T08:51:19.406Z,7.60
2023-05-14T08:54:23.924Z,9.90
2023-05-14T08:57:28.022Z,7.50
2023-05-14T09:00:31.100Z,4.30
2023-05-14T09:03:34.978Z,6.00
2023-05-14T09:06:38.376Z,6.90
2023-05-14T09:09:41.551Z,5.40
2023-05-14T09:12:44.519Z,39.30
2023-05-14T09:15:48.975Z,9.40
2023-05-14T09:18:52.331Z,7.70
2023-05-14T09:22:01.008Z,3.90
2023-05-14T09:28:30.747Z,5.30
2023-05-14T09:31:33.921Z,12.20
2023-05-14T09:34:39.703Z,5.00
2023-05-14T09:37:44.200Z,4.70
2023-05-14T09:40:46.918Z,13.80
2023-05-14T09:43:51.447Z,10.00
2023-05-14T09:46:55.116Z,16.90
2023-05-14T09:49:57.888Z,6.50
2023-05-14T09:53:01.003Z,3.40
2023-05-14T09:56:03.874Z,19.60
2023-05-14T09:59:06.586Z,4.50
2023-05-14T10:02:26.288Z,3.40
2023-05-14T10:05:29.753Z,14.00
2023-05-14T10:08:41.328Z,4.30
2023-05-14T10:11:45.585Z,11.50
2023-05-14T10:14:53.304Z,6.00
2023-05-14T10:18:00.954Z,7.20
2023-05-14T10:21:08.072Z,8.50
2023-05-14T10:24:11.417Z,2.70
2023-05-14T10:27:15.329Z,7.10
2023-05-14T10:30:23.207Z,5.90
2023-05-14T10:33:27.321Z,2.50
2023-05-14T10:36:30.169Z,5.40
2023-05-14T10:39:51.243Z,36.40
2023-05-14T10:42:59.194Z,20.50
2023-05-14T10:46:02.970Z,4.20
2023-05-14T10:49:06.038Z,19.40
2023-05-14T10:52:09.548Z,6.70
2023-05-14T10:55:16.909Z,2.40
2023-05-14T10:58:19.750Z,14.60
2023-05-14T11:01:24.282Z,4.60
2023-05-14T11:04:28.230Z,6.60
2023-05-14T11:07:33.822Z,7.40
2023-05-14T11:10:39.007Z,5.00
2023-05-14T11:13:42.913Z,7.00
2023-05-14T11:16:47.434Z,2.10
2023-05-14T11:19:51.232Z,1.90
2023-05-14T11:22:55.390Z,3.10
2023-05-14T11:25:58.342Z,2.00
2023-05-14T11:29:01.321Z,5.70
2023-05-14T11:32:06.734Z,5.50
2023-05-14T11:35:10.189Z,8.20
2023-05-14T11:38:21.285Z,8.30
2023-05-14T11:41:24.528Z,2.70
2023-05-14T11:44:27.408Z,9.70
2023-05-14T11:47:31.732Z,9.50
2023-05-14T11:50:36.721Z,10.20
2023-05-14T11:53:39.553Z,8.10
2023-05-14T11:56:42.285Z,7.70
2023-05-14T11:59:46.276Z,4.60
2023-05-14T12:02:50.143Z,12.10
2023-05-14T12:06:00.716Z,3.60
2023-05-14T12:09:05.904Z,3.70
2023-05-14T12:12:12.408Z,5.30
2023-05-14T12:15:17.428Z,3.80
2023-05-14T12:18:24.577Z,3.60
2023-05-14T12:21:29.401Z,5.80
2023-05-14T12:24:32.154Z,23.70
2023-05-14T12:27:37.753Z,12.00
2023-05-14T12:30:41.338Z,3.30
2023-05-14T12:33:44.072Z,12.60
2023-05-14T12:36:46.815Z,8.70
2023-05-14T12:39:49.878Z,3.70
2023-05-14T12:42:54.048Z,5.50
2023-05-14T12:45:57.809Z,3.10
2023-05-14T12:49:00.593Z,6.10
2023-05-14T12:52:22.815Z,2.80
2023-05-14T12:55:28.190Z,6.10
2023-05-14T12:58:30.903Z,1.80
2023-05-14T13:01:33.790Z,1.90
2023-05-14T13:04:37.437Z,9.10
2023-05-14T13:07:40.642Z,7.10
2023-05-14T13:10:44.667Z,9.00
2023-05-14T13:13:47.585Z,6.10
2023-05-14T13:16:50.852Z,2.70
2023-05-14T13:19:53.777Z,5.60
2023-05-14T13:22:57.225Z,6.00
2023-05-14T13:25:59.957Z,4.80
2023-05-14T13:29:02.915Z,11.30
2023-05-14T13:32:06.274Z,6.50
2023-05-14T13:35:09.576Z,4.40
2023-05-14T13:38:12.297Z,2.80
2023-05-14T13:41:15.060Z,2.30
2023-05-14T13:44:17.915Z,10.50
2023-05-14T13:47:20.729Z,3.30
2023-05-14T13:50:23.573Z,7.60
2023-05-14T13:53:27.242Z,1.90
2023-05-14T13:56:30.036Z,2.20
2023-05-14T13:59:32.999Z,2.70
2023-05-14T14:02:35.770Z,3.50
2023-05-14T14:05:38.918Z,5.90
2023-05-14T14:08:41.794Z,2.90
2023-05-14T14:11:44.885Z,2.20
2023-05-14T14:14:48.207Z,5.80
2023-05-14T14:17:51.051Z,2.70
2023-05-14T14:20:53.807Z,3.70
2023-05-14T14:23:56.550Z,5.40
2023-05-14T14:26:59.295Z,8.30
2023-05-14T14:30:02.247Z,5.30
2023-05-14T14:33:05.373Z,8.80
2023-05-14T14:36:09.060Z,5.10
2023-05-14T14:39:11.864Z,2.00
2023-05-14T14:42:14.674Z,4.80
2023-05-14T14:45:17.737Z,2.70
2023-05-14T14:48:28.347Z,5.50
2023-05-14T14:51:31.631Z,10.20
2023-05-14T14:54:34.359Z,6.80
2023-05-14T14:57:37.110Z,8.70
2023-05-14T15:00:40.413Z,4.00
2023-05-14T15:03:45.786Z,6.50
2023-05-14T15:06:48.913Z,5.40
2023-05-14T15:09:51.659Z,3.10
2023-05-14T15:12:57.863Z,5.80
2023-05-14T15:16:00.791Z,2.90
2023-05-14T15:19:03.730Z,2.60
2023-05-14T15:22:06.564Z,5.40
2023-05-14T15:25:09.755Z,3.30
2023-05-14T15:28:12.488Z,2.50
2023-05-14T15:31:15.985Z,6.70
2023-05-14T15:34:18.763Z,2.60
2023-05-14T15:37:23.878Z,2.90
2023-05-14T15:40:29.793Z,3.20
2023-05-14T15:43:32.573Z,4.80
2023-05-14T15:46:35.807Z,2.50
2023-05-14T15:49:38.744Z,3.90
2023-05-14T15:52:41.582Z,5.00
2023-05-14T15:55:44.736Z,5.10
2023-05-14T15:58:48.474Z,3.10
2023-05-14T16:01:51.479Z,3.50
2023-05-14T16:04:54.290Z,4.40
2023-05-14T16:07:57.094Z,2.00
2023-05-14T16:10:59.898Z,4.00
2023-05-14T16:14:02.729Z,4.30
2023-05-14T16:17:05.559Z,7.00
2023-05-14T16:20:09.155Z,6.10
2023-05-14T16:23:11.963Z,3.80
2023-05-14T16:26:14.705Z,3.10
2023-05-14T16:29:17.760Z,8.10
2023-05-14T16:32:21.738Z,11.50
2023-05-14T16:35:24.568Z,18.20
2023-05-14T16:38:27.336Z,4.20
2023-05-14T16:41:30.258Z,6.70
2023-05-14T16:44:33.048Z,2.80
2023-05-14T16:47:35.841Z,7.80
2023-05-14T16:50:38.727Z,8.80
2023-05-14T16:53:41.439Z,5.30
2023-05-14T16:56:48.157Z,6.50
2023-05-14T16:59:51.317Z,3.60
2023-05-14T17:02:54.343Z,8.60
2023-05-14T17:05:57.318Z,10.30
2023-05-14T17:09:00.167Z,5.00
2023-05-14T17:12:03.303Z,13.80
2023-05-14T17:15:07.310Z,17.80
2023-05-14T17:18:12.066Z,6.10
2023-05-14T17:21:15.238Z,7.10
2023-05-14T17:24:18.333Z,6.50
2023-05-14T17:27:21.470Z,17.30
2023-05-14T17:30:24.992Z,14.50
2023-05-14T17:33:28.530Z,5.10
2023-05-14T17:36:32.391Z,13.50
2023-05-14T17:39:35.924Z,14.00
2023-05-14T17:42:39.107Z,14.00
2023-05-14T17:45:53.031Z,6.10
2023-05-14T17:48:58.396Z,5.20
2023-05-14T17:52:02.182Z,4.30
2023-05-14T17:55:05.587Z,4.10
2023-05-14T17:58:08.508Z,8.90
2023-05-14T18:01:11.667Z,21.30
2023-05-14T18:04:15.113Z,11.30
2023-05-14T18:07:19.228Z,23.50
2023-05-14T18:10:22.025Z,51.40
2023-05-14T18:13:24.870Z,31.00
2023-05-14T18:16:28.415Z,8.70
2023-05-14T18:19:31.344Z,18.30
2023-05-14T18:22:34.099Z,23.80
2023-05-14T18:25:36.894Z,10.80
2023-05-14T18:28:39.967Z,11.40
2023-05-14T18:31:42.670Z,17.90
2023-05-14T18:34:45.370Z,27.30
2023-05-14T18:37:48.142Z,23.80
2023-05-14T18:40:51.100Z,30.90
2023-05-14T18:43:53.830Z,24.40
2023-05-14T18:46:56.673Z,32.00
2023-05-14T18:50:02.107Z,52.90
2023-05-14T18:53:05.435Z,32.00
2023-05-14T18:56:09.669Z,29.70
2023-05-14T18:59:12.446Z,60.10
2023-05-14T19:02:15.380Z,76.00
2023-05-14T19:05:18.260Z,66.60
2023-05-14T19:08:21.157Z,46.00
2023-05-14T19:11:24.075Z,43.50
2023-05-14T19:14:26.829Z,50.80
2023-05-14T19:17:32.769Z,45.80
2023-05-14T19:20:35.794Z,35.00
2023-05-14T19:23:39.443Z,34.10
2023-05-14T19:26:42.238Z,16.20
2023-05-14T19:29:45.112Z,16.80
2023-05-14T19:32:48.460Z,17.90
2023-05-14T19:35:52.101Z,31.20
2023-05-14T19:38:54.935Z,24.40
2023-05-14T19:41:57.688Z,31.80
2023-05-14T19:45:00.575Z,24.20
2023-05-14T19:48:06.166Z,45.10
2023-05-14T19:51:09.119Z,29.00
2023-05-14T19:54:11.925Z,35.20
2023-05-14T19:57:14.821Z,52.50
2023-05-14T20:00:17.865Z,45.90
2023-05-14T20:03:31.194Z,22.60
2023-05-14T20:06:34.317Z,29.60
2023-05-14T20:09:37.088Z,27.40
2023-05-14T20:12:40.020Z,31.30
2023-05-14T20:15:43.373Z,14.10
2023-05-14T20:18:46.336Z,20.20
2023-05-14T20:21:49.081Z,20.50
2023-05-14T20:24:52.883Z,19.00
2023-05-14T20:27:55.723Z,16.20
2023-05-14T20:31:03.988Z,9.20
2023-05-14T20:34:07.060Z,12.40
2023-05-14T20:37:10.175Z,18.30
2023-05-14T20:40:13.071Z,12.20
2023-05-14T20:43:16.119Z,11.50
2023-05-14T20:46:19.088Z,10.60
2023-05-14T20:49:21.948Z,10.00
2023-05-14T20:52:25.097Z,8.60
2023-05-14T20:55:28.202Z,13.50
2023-05-14T20:58:31.050Z,7.10
2023-05-14T21:01:33.835Z,6.10
2023-05-14T21:04:36.646Z,10.10
2023-05-14T21:07:39.735Z,11.40
2023-05-14T21:10:42.488Z,6.70
2023-05-14T21:13:45.259Z,10.30
2023-05-14T21:16:48.620Z,12.80
2023-05-14T21:19:51.731Z,5.80
2023-05-14T21:22:54.496Z,5.70
2023-05-14T21:25:57.927Z,6.10
2023-05-14T21:29:00.929Z,5.70
2023-05-14T21:32:04.088Z,15.40
2023-05-14T21:35:07.493Z,5.50
2023-05-14T21:38:10.339Z,9.50
2023-05-14T21:41:13.323Z,7.00
2023-05-14T21:44:16.099Z,11.40
2023-05-14T21:47:19.880Z,8.80
2023-05-14T21:50:22.617Z,20.90
2023-05-14T21:53:25.344Z,13.80
2023-05-14T21:56:28.153Z,6.60
2023-05-14T21:59:30.873Z,6.30
2023-05-14T22:02:33.614Z,6.10
2023-05-14T22:05:36.522Z,6.50
2023-05-14T22:08:39.218Z,5.60
2023-05-14T22:11:41.933Z,15.20
2023-05-14T22:14:44.808Z,5.80
2023-05-14T22:17:48.202Z,6.90
2023-05-14T22:20:51.296Z,6.10
2023-05-14T22:23:54.132Z,8.70
2023-05-14T22:27:22.206Z,8.70
2023-05-14T22:30:25.114Z,5.80
2023-05-14T22:33:27.865Z,5.60
2023-05-14T22:36:30.645Z,5.50
2023-05-14T22:39:33.468Z,5.70
2023-05-14T22:42:36.200Z,10.80
2023-05-14T22:45:38.923Z,12.50
2023-05-14T22:48:42.222Z,7.80
2023-05-14T22:51:44.979Z,16.20
2023-05-14T22:54:51.029Z,6.90
2023-05-14T22:57:53.954Z,11.30
2023-05-14T23:00:57.278Z,7.00
2023-05-14T23:04:00.238Z,7.10
2023-05-14T23:07:03.157Z,7.40
2023-05-14T23:10:06.732Z,7.50
2023-05-14T23:13:09.504Z,9.60
2023-05-14T23:16:12.267Z,8.60
2023-05-14T23:19:15.207Z,7.10
2023-05-14T23:22:18.547Z,9.40
2023-05-14T23:25:21.254Z,6.70
2023-05-14T23:28:24.153Z,14.90
2023-05-14T23:31:26.907Z,8.90
2023-05-14T23:34:29.624Z,7.00
2023-05-14T23:37:33.703Z,8.60
2023-05-14T23:40:36.582Z,14.60
2023-05-14T23:43:39.402Z,14.30
2023-05-14T23:46:42.169Z,15.90
2023-05-14T23:49:44.958Z,6.80
2023-05-14T23:52:47.694Z,10.80
2023-05-14T23:55:50.754Z,11.50
2023-05-14T23:58:53.828Z,11.00
